createdAt,value
2018-03-25T00:00:33.147Z,9.23
2018-03-25T00:03:02.060Z,9.93
2018-03-25T00:05:31.071Z,11.63
2018-03-25T00:07:59.939Z,10.73
2018-03-25T00:10:28.818Z,10.13
2018-03-25T00:12:57.801Z,10.40
2018-03-25T00:15:27.023Z,10.10
2018-03-25T00:17:55.886Z,10.40
2018-03-25T00:20:24.763Z,11.40
2018-03-25T00:22:53.636Z,11.20
2018-03-25T00:25:23.174Z,10.07
2018-03-25T00:27:52.051Z,13.37
2018-03-25T00:30:20.918Z,10.83
2018-03-25T00:32:49.936Z,11.43
2018-03-25T00:35:18.783Z,11.53
2018-03-25T00:37:47.954Z,12.37
2018-03-25T00:40:16.806Z,15.07
2018-03-25T00:42:45.655Z,12.53
2018-03-25T00:45:14.571Z,12.67
2018-03-25T00:47:43.432Z,14.00
2018-03-25T00:50:12.278Z,13.03
2018-03-25T00:52:41.192Z,13.27
2018-03-25T00:55:10.046Z,14.13
2018-03-25T00:57:38.987Z,11.57
2018-03-25T01:00:10.334Z,13.07
2018-03-25T01:02:39.195Z,13.93
2018-03-25T01:05:08.081Z,13.53
2018-03-25T01:07:37.508Z,16.53
2018-03-25T01:10:06.366Z,15.53
2018-03-25T01:12:35.222Z,13.50
2018-03-25T01:15:04.152Z,12.30
2018-03-25T01:17:33.039Z,10.70
2018-03-25T01:20:01.890Z,12.60
2018-03-25T01:22:31.013Z,13.03
2018-03-25T01:24:59.861Z,14.57
2018-03-25T01:27:33.100Z,15.30
2018-03-25T01:30:01.979Z,11.10
2018-03-25T01:32:30.896Z,13.83
2018-03-25T01:34:59.922Z,14.50
2018-03-25T01:37:28.793Z,13.57
2018-03-25T01:39:57.697Z,14.90
2018-03-25T01:42:26.705Z,15.23
2018-03-25T01:44:55.571Z,12.77
2018-03-25T01:47:24.451Z,12.87
2018-03-25T01:49:53.363Z,16.13
2018-03-25T01:52:22.216Z,11.33
2018-03-25T01:54:51.227Z,12.90
2018-03-25T01:57:20.478Z,12.87
2018-03-25T01:59:49.326Z,12.80
2018-03-25T02:02:18.188Z,14.43
2018-03-25T02:04:47.666Z,13.03
2018-03-25T02:07:16.519Z,11.20
2018-03-25T02:09:45.388Z,13.97
2018-03-25T02:12:19.340Z,15.77
2018-03-25T02:14:48.191Z,14.40
2018-03-25T02:17:17.041Z,16.10
2018-03-25T02:19:45.945Z,13.83
2018-03-25T02:22:14.791Z,11.67
2018-03-25T02:24:43.639Z,11.93
2018-03-25T02:27:12.538Z,13.53
2018-03-25T02:29:41.386Z,11.67
2018-03-25T02:32:10.236Z,12.13
2018-03-25T02:34:39.154Z,14.57
2018-03-25T02:37:08.016Z,12.73
2018-03-25T02:39:36.862Z,13.23
2018-03-25T02:42:05.763Z,14.97
2018-03-25T02:44:34.615Z,11.37
2018-03-25T02:47:03.467Z,13.33
2018-03-25T02:49:33.223Z,16.57
2018-03-25T02:52:02.299Z,14.10
2018-03-25T02:54:31.166Z,13.97
2018-03-25T02:57:00.072Z,13.17
2018-03-25T02:59:28.977Z,15.97
2018-03-25T03:01:57.832Z,11.83
2018-03-25T03:04:26.736Z,15.00
2018-03-25T03:06:55.767Z,15.27
2018-03-25T03:09:24.690Z,15.93
2018-03-25T03:11:53.567Z,13.80
2018-03-25T03:14:23.162Z,16.47
2018-03-25T03:16:52.028Z,12.23
2018-03-25T03:19:21.349Z,14.53
2018-03-25T03:21:50.202Z,11.30
2018-03-25T03:24:19.071Z,18.97
2018-03-25T03:26:49.148Z,15.67
2018-03-25T03:29:18.012Z,14.33
2018-03-25T03:31:46.906Z,16.03
2018-03-25T03:34:15.883Z,14.80
2018-03-25T03:36:44.778Z,16.03
2018-03-25T03:39:13.643Z,17.60
2018-03-25T03:41:42.507Z,16.30
2018-03-25T03:44:12.008Z,20.73
2018-03-25T03:46:40.906Z,17.50
2018-03-25T03:49:09.935Z,17.97
2018-03-25T03:51:38.835Z,17.07
2018-03-25T03:54:07.682Z,14.47
2018-03-25T03:56:36.558Z,15.43
2018-03-25T03:59:05.474Z,13.97
2018-03-25T04:01:34.339Z,13.10
2018-03-25T04:04:03.448Z,11.23
2018-03-25T04:06:32.341Z,15.20
2018-03-25T04:09:01.221Z,14.10
2018-03-25T04:11:30.312Z,12.73
2018-03-25T04:14:00.322Z,14.00
2018-03-25T04:16:29.282Z,11.73
2018-03-25T04:18:58.212Z,13.43
2018-03-25T04:21:27.112Z,12.20
2018-03-25T04:23:55.976Z,12.57
2018-03-25T04:26:24.997Z,15.33
2018-03-25T04:28:54.090Z,14.27
2018-03-25T04:31:22.963Z,15.17
2018-03-25T04:33:52.074Z,13.93
2018-03-25T04:36:20.935Z,14.40
2018-03-25T04:38:49.795Z,15.77
2018-03-25T04:41:18.665Z,16.70
2018-03-25T04:43:47.518Z,15.13
2018-03-25T04:46:16.730Z,16.00
2018-03-25T04:48:45.573Z,14.87
2018-03-25T04:51:14.439Z,12.63
2018-03-25T04:53:43.339Z,13.67
2018-03-25T04:56:12.206Z,14.37
2018-03-25T04:58:41.251Z,14.00
2018-03-25T05:01:10.146Z,14.60
2018-03-25T05:03:38.994Z,15.30
2018-03-25T05:06:07.825Z,13.50
2018-03-25T05:08:39.407Z,19.00
2018-03-25T05:11:08.250Z,13.90
2018-03-25T05:13:37.104Z,13.60
2018-03-25T05:16:06.590Z,14.73
2018-03-25T05:18:35.451Z,14.50
2018-03-25T05:21:04.351Z,13.10
2018-03-25T05:23:33.204Z,13.17
2018-03-25T05:26:02.091Z,14.17
2018-03-25T05:28:31.120Z,18.13
2018-03-25T05:30:59.966Z,13.53
2018-03-25T05:33:28.855Z,14.87
2018-03-25T05:35:57.759Z,14.90
2018-03-25T05:38:26.636Z,20.03
2018-03-25T05:40:55.486Z,13.57
2018-03-25T05:43:25.837Z,15.07
2018-03-25T05:45:54.719Z,14.40
2018-03-25T05:48:23.634Z,15.83
2018-03-25T05:50:52.523Z,13.57
2018-03-25T05:53:21.383Z,13.73
2018-03-25T05:55:50.239Z,14.43
2018-03-25T05:58:19.155Z,14.90
2018-03-25T06:00:48.014Z,14.23
2018-03-25T06:03:16.867Z,12.43
2018-03-25T06:05:45.770Z,13.13
2018-03-25T06:08:14.646Z,14.13
2018-03-25T06:10:43.603Z,14.03
2018-03-25T06:13:12.495Z,13.30
2018-03-25T06:15:41.360Z,14.37
2018-03-25T06:18:10.228Z,12.63
2018-03-25T06:20:40.123Z,20.17
2018-03-25T06:23:08.995Z,16.73
2018-03-25T06:25:37.903Z,16.97
2018-03-25T06:28:06.755Z,15.73
2018-03-25T06:30:35.619Z,16.80
2018-03-25T06:33:04.892Z,16.53
2018-03-25T06:35:33.802Z,18.23
2018-03-25T06:38:02.684Z,16.10
2018-03-25T06:40:31.587Z,17.23
2018-03-25T06:43:00.435Z,18.07
2018-03-25T06:45:29.296Z,17.27
2018-03-25T06:47:58.229Z,16.57
2018-03-25T06:50:27.084Z,15.07
2018-03-25T06:52:55.937Z,15.03
2018-03-25T06:55:27.575Z,15.93
2018-03-25T06:57:56.423Z,16.33
2018-03-25T07:00:25.281Z,18.23
2018-03-25T07:02:54.553Z,21.07
2018-03-25T07:05:23.414Z,17.47
2018-03-25T07:07:52.269Z,17.27
2018-03-25T07:10:21.165Z,19.13
2018-03-25T07:12:51.956Z,17.77
2018-03-25T07:15:20.832Z,15.80
2018-03-25T07:17:49.690Z,17.47
2018-03-25T07:20:18.546Z,18.10
2018-03-25T07:22:47.455Z,18.70
2018-03-25T07:25:16.326Z,18.83
2018-03-25T07:27:45.192Z,16.77
2018-03-25T07:30:14.272Z,22.47
2018-03-25T07:32:43.140Z,25.47
2018-03-25T07:35:12.062Z,19.97
2018-03-25T07:37:40.901Z,21.63
2018-03-25T07:40:10.772Z,22.90
2018-03-25T07:42:39.672Z,24.07
2018-03-25T07:45:08.539Z,21.93
2018-03-25T07:47:37.397Z,21.57
2018-03-25T07:50:06.365Z,25.50
2018-03-25T07:52:35.107Z,23.17
2018-03-25T07:55:04.343Z,22.87
2018-03-25T07:57:33.213Z,23.77
2018-03-25T08:00:02.073Z,25.87
2018-03-25T08:02:30.966Z,22.90
2018-03-25T08:04:59.819Z,28.53
2018-03-25T08:07:28.673Z,23.63
2018-03-25T08:09:58.608Z,26.77
2018-03-25T08:12:27.597Z,22.80
2018-03-25T08:14:57.259Z,25.83
2018-03-25T08:17:26.266Z,28.47
2018-03-25T08:19:55.128Z,27.40
2018-03-25T08:22:23.984Z,28.87
2018-03-25T08:24:52.903Z,29.33
2018-03-25T08:27:21.777Z,28.97
2018-03-25T08:29:50.634Z,26.80
2018-03-25T08:32:20.468Z,26.00
2018-03-25T08:34:49.322Z,27.33
2018-03-25T08:37:18.168Z,25.77
2018-03-25T08:39:47.144Z,26.67
2018-03-25T08:44:51.336Z,28.07
2018-03-25T08:47:20.385Z,26.83
2018-03-25T08:49:49.270Z,29.63
2018-03-25T08:52:18.175Z,24.83
2018-03-25T08:54:47.027Z,27.70
2018-03-25T08:57:19.162Z,26.40
2018-03-25T08:59:48.016Z,25.47
2018-03-25T09:02:16.880Z,24.90
2018-03-25T09:04:45.760Z,25.00
2018-03-25T09:07:14.617Z,24.07
2018-03-25T09:09:43.770Z,23.47
2018-03-25T09:12:12.629Z,23.83
2018-03-25T09:14:41.479Z,25.20
2018-03-25T09:17:10.991Z,23.43
2018-03-25T09:19:39.843Z,26.10
2018-03-25T09:22:08.760Z,25.37
2018-03-25T09:24:37.644Z,23.20
2018-03-25T09:27:06.943Z,27.40
2018-03-25T09:29:36.308Z,23.37
2018-03-25T09:32:06.350Z,24.33
2018-03-25T09:34:35.198Z,25.97
2018-03-25T09:37:04.057Z,24.67
2018-03-25T09:39:32.926Z,24.37
2018-03-25T09:42:01.827Z,24.73
2018-03-25T09:44:31.015Z,23.50
2018-03-25T09:46:59.877Z,24.57
2018-03-25T09:49:28.737Z,23.90
2018-03-25T09:51:58.385Z,24.90
2018-03-25T09:54:27.241Z,24.17
2018-03-25T09:56:56.103Z,23.27
2018-03-25T09:59:25.277Z,25.43
2018-03-25T10:02:00.044Z,24.83
2018-03-25T10:04:30.684Z,22.87
2018-03-25T10:06:59.722Z,22.07
2018-03-25T10:09:28.583Z,23.60
2018-03-25T10:11:57.507Z,24.50
2018-03-25T10:14:26.350Z,25.27
2018-03-25T10:16:55.214Z,24.57
2018-03-25T10:19:25.253Z,23.23
2018-03-25T10:21:54.131Z,24.53
2018-03-25T10:24:22.998Z,23.13
2018-03-25T10:26:51.902Z,22.67
2018-03-25T10:29:20.761Z,27.63
2018-03-25T10:31:49.622Z,23.70
2018-03-25T10:34:19.098Z,24.60
2018-03-25T10:36:47.944Z,23.17
2018-03-25T10:39:16.846Z,26.80
2018-03-25T10:41:46.047Z,24.13
2018-03-25T10:44:14.916Z,22.33
2018-03-25T10:46:47.334Z,22.70
2018-03-25T10:49:16.195Z,21.77
2018-03-25T10:51:45.117Z,22.27
2018-03-25T10:54:13.965Z,21.23
2018-03-25T10:56:42.994Z,22.03
2018-03-25T10:59:13.572Z,22.77
2018-03-25T11:01:42.431Z,21.47
2018-03-25T11:04:11.284Z,22.07
2018-03-25T11:06:40.204Z,23.70
2018-03-25T11:09:09.063Z,23.07
2018-03-25T11:11:37.915Z,23.90
2018-03-25T11:14:07.603Z,22.57
2018-03-25T11:16:36.455Z,21.90
2018-03-25T11:19:05.325Z,23.43
2018-03-25T11:21:35.179Z,21.90
2018-03-25T11:24:04.031Z,22.33
2018-03-25T11:26:33.162Z,24.13
2018-03-25T11:29:02.107Z,22.70
2018-03-25T11:31:31.155Z,22.93
2018-03-25T11:34:00.053Z,22.77
2018-03-25T11:36:28.908Z,21.90
2018-03-25T11:38:58.020Z,22.23
2018-03-25T11:41:26.874Z,21.50
2018-03-25T11:43:55.748Z,23.13
2018-03-25T11:46:24.633Z,23.93
2018-03-25T11:48:53.496Z,24.10
2018-03-25T11:51:22.589Z,22.40
2018-03-25T11:53:51.428Z,23.20
2018-03-25T11:56:20.281Z,23.17
2018-03-25T11:58:49.299Z,21.10
2018-03-25T12:01:18.150Z,21.87
2018-03-25T12:03:47.065Z,22.33
2018-03-25T12:06:15.942Z,21.53
2018-03-25T12:08:44.825Z,22.90
2018-03-25T12:11:13.763Z,21.90
2018-03-25T12:13:42.611Z,22.10
2018-03-25T12:16:12.768Z,22.52
2018-03-25T12:18:41.682Z,22.17
2018-03-25T12:21:10.539Z,21.73
2018-03-25T12:23:39.596Z,23.87
2018-03-25T12:26:08.470Z,21.80
2018-03-25T12:28:37.331Z,21.02
2018-03-25T12:31:06.434Z,22.67
2018-03-25T12:33:35.298Z,21.37
2018-03-25T12:36:04.161Z,21.52
2018-03-25T12:38:33.059Z,22.27
2018-03-25T12:41:01.921Z,22.05
2018-03-25T12:43:30.895Z,22.55
2018-03-25T12:45:59.770Z,21.67
2018-03-25T12:48:28.622Z,20.62
2018-03-25T12:50:57.743Z,18.62
2018-03-25T12:53:26.583Z,19.27
2018-03-25T12:55:55.447Z,20.98
2018-03-25T12:58:26.535Z,20.67
2018-03-25T13:00:55.387Z,20.70
2018-03-25T13:03:24.290Z,20.25
2018-03-25T13:05:53.515Z,21.60
2018-03-25T13:08:22.474Z,22.70
2018-03-25T13:10:51.332Z,19.55
2018-03-25T13:13:20.250Z,20.60
2018-03-25T13:15:49.114Z,20.73
2018-03-25T13:18:17.980Z,20.08
2018-03-25T13:20:46.859Z,19.23
2018-03-25T13:23:15.737Z,20.10
2018-03-25T13:25:45.599Z,20.12
2018-03-25T13:28:14.454Z,19.77
2018-03-25T13:30:43.306Z,20.48
2018-03-25T13:33:12.178Z,19.37
2018-03-25T13:35:41.048Z,19.87
2018-03-25T13:38:09.929Z,19.98
2018-03-25T13:40:38.778Z,20.30
2018-03-25T13:43:07.703Z,19.33
2018-03-25T13:45:36.555Z,20.33
2018-03-25T13:48:05.396Z,20.33
2018-03-25T13:50:34.588Z,20.02
2018-03-25T13:53:03.432Z,27.62
2018-03-25T13:55:32.371Z,20.58
2018-03-25T13:58:01.244Z,20.02
2018-03-25T14:00:30.127Z,20.70
2018-03-25T14:02:58.996Z,20.48
2018-03-25T14:05:27.854Z,20.15
2018-03-25T14:07:56.711Z,20.77
2018-03-25T14:10:25.611Z,20.45
2018-03-25T14:12:54.515Z,20.95
2018-03-25T14:15:23.330Z,20.42
2018-03-25T14:17:52.589Z,20.80
2018-03-25T14:20:21.454Z,19.95
2018-03-25T14:22:50.333Z,19.30
2018-03-25T14:25:19.242Z,19.65
2018-03-25T14:27:49.558Z,20.33
2018-03-25T14:30:18.450Z,19.80
2018-03-25T14:32:47.531Z,19.77
2018-03-25T14:35:17.506Z,19.80
2018-03-25T14:37:46.539Z,20.27
2018-03-25T14:40:15.402Z,19.98
2018-03-25T14:42:44.310Z,19.83
2018-03-25T14:45:13.190Z,19.55
2018-03-25T14:47:42.087Z,20.33
2018-03-25T14:50:11.079Z,21.20
2018-03-25T14:52:39.947Z,19.98
2018-03-25T14:55:08.818Z,20.20
2018-03-25T14:57:37.718Z,21.42
2018-03-25T15:00:06.573Z,20.62
2018-03-25T15:02:35.465Z,19.62
2018-03-25T15:05:04.333Z,21.17
2018-03-25T15:07:33.181Z,22.08
2018-03-25T15:10:02.103Z,22.52
2018-03-25T15:12:30.954Z,21.55
2018-03-25T15:14:59.819Z,21.80
2018-03-25T15:17:28.731Z,21.75
2018-03-25T15:19:57.586Z,21.25
2018-03-25T15:22:26.587Z,22.65
2018-03-25T15:24:55.679Z,21.15
2018-03-25T15:27:24.532Z,21.37
2018-03-25T15:29:54.218Z,21.00
2018-03-25T15:32:23.709Z,20.92
2018-03-25T15:34:52.579Z,20.75
2018-03-25T15:37:21.434Z,20.15
2018-03-25T15:39:50.362Z,20.50
2018-03-25T15:42:19.211Z,22.05
2018-03-25T15:44:48.088Z,20.45
2018-03-25T15:47:16.963Z,21.12
2018-03-25T15:49:45.988Z,20.45
2018-03-25T15:52:14.887Z,19.50
2018-03-25T15:54:43.812Z,20.55
2018-03-25T15:57:12.871Z,19.83
2018-03-25T15:59:43.385Z,19.63
2018-03-25T16:02:12.410Z,20.47
2018-03-25T16:04:41.292Z,21.20
2018-03-25T16:07:10.188Z,19.23
2018-03-25T16:09:39.174Z,20.87
2018-03-25T16:12:07.983Z,21.07
2018-03-25T16:14:36.875Z,22.00
2018-03-25T16:17:05.738Z,23.17
2018-03-25T16:19:34.579Z,20.90
2018-03-25T16:22:03.936Z,23.30
2018-03-25T16:24:32.917Z,21.10
2018-03-25T16:27:01.782Z,21.87
2018-03-25T16:29:30.761Z,22.20
2018-03-25T16:32:00.386Z,23.73
2018-03-25T16:34:29.268Z,23.20
2018-03-25T16:36:58.132Z,21.67
2018-03-25T16:39:27.494Z,22.17
2018-03-25T16:41:56.355Z,22.23
2018-03-25T16:44:25.302Z,20.67
2018-03-25T16:46:54.475Z,22.27
2018-03-25T16:49:23.336Z,24.27
2018-03-25T16:51:52.211Z,24.23
2018-03-25T16:54:21.060Z,23.30
2018-03-25T16:56:49.932Z,22.60
2018-03-25T16:59:19.011Z,22.00
2018-03-25T17:01:47.863Z,22.97
2018-03-25T17:04:16.835Z,21.53
2018-03-25T17:06:45.756Z,20.73
2018-03-25T17:09:14.603Z,21.70
2018-03-25T17:11:43.459Z,22.90
2018-03-25T17:14:13.009Z,20.53
2018-03-25T17:16:41.885Z,19.20
2018-03-25T17:19:10.750Z,21.50
2018-03-25T17:21:39.868Z,20.60
2018-03-25T17:24:08.735Z,19.87
2018-03-25T17:26:37.724Z,18.77
2018-03-25T17:29:06.648Z,20.67
2018-03-25T17:31:35.652Z,19.70
2018-03-25T17:34:05.309Z,21.07
2018-03-25T17:36:34.439Z,23.70
2018-03-25T17:39:03.282Z,27.93
2018-03-25T17:41:32.146Z,25.00
2018-03-25T17:44:01.062Z,25.67
2018-03-25T17:46:29.912Z,24.63
2018-03-25T17:48:58.799Z,23.80
2018-03-25T17:51:28.400Z,24.50
2018-03-25T17:53:57.262Z,23.93
2018-03-25T17:56:26.192Z,23.10
2018-03-25T17:58:56.089Z,19.67
2018-03-25T18:01:24.965Z,20.07
2018-03-25T18:03:53.869Z,19.80
2018-03-25T18:06:22.723Z,20.40
2018-03-25T18:08:51.640Z,20.90
2018-03-25T18:11:20.832Z,24.70
2018-03-25T18:13:49.703Z,21.53
2018-03-25T18:16:18.586Z,22.00
2018-03-25T18:18:47.819Z,22.03
2018-03-25T18:21:16.664Z,17.40
2018-03-25T18:23:45.644Z,17.40
2018-03-25T18:26:14.719Z,16.83
2018-03-25T18:28:43.573Z,16.53
2018-03-25T18:31:12.451Z,15.87
2018-03-25T18:33:41.365Z,15.47
2018-03-25T18:36:10.553Z,14.57
2018-03-25T18:38:39.423Z,16.47
2018-03-25T18:41:08.473Z,15.20
2018-03-25T18:43:37.351Z,14.20
2018-03-25T18:46:06.336Z,16.30
2018-03-25T18:48:35.244Z,18.27
2018-03-25T18:51:04.100Z,15.93
2018-03-25T18:53:32.979Z,15.27
2018-03-25T18:56:02.549Z,17.33
2018-03-25T18:58:31.417Z,15.40
2018-03-25T19:01:00.520Z,16.20
2018-03-25T19:03:29.404Z,15.00
2018-03-25T19:05:58.256Z,16.57
2018-03-25T19:08:27.289Z,15.77
2018-03-25T19:10:56.146Z,16.17
2018-03-25T19:13:25.802Z,14.47
2018-03-25T19:15:54.690Z,15.60
2018-03-25T19:18:23.553Z,16.33
2018-03-25T19:20:52.732Z,13.93
2018-03-25T19:23:21.625Z,13.60
2018-03-25T19:25:50.621Z,14.90
2018-03-25T19:28:20.993Z,15.37
2018-03-25T19:30:50.684Z,18.57
2018-03-25T19:33:19.608Z,21.17
2018-03-25T19:35:48.514Z,17.23
2018-03-25T19:38:18.810Z,17.50
2018-03-25T19:40:47.766Z,15.90
2018-03-25T19:43:16.691Z,14.37
2018-03-25T19:45:45.561Z,13.40
2018-03-25T19:48:14.532Z,13.73
2018-03-25T19:50:44.360Z,13.97
2018-03-25T19:53:13.220Z,13.33
2018-03-25T19:55:42.097Z,13.37
2018-03-25T19:58:16.250Z,12.17
2018-03-25T20:00:45.492Z,12.90
2018-03-25T20:03:14.366Z,13.87
2018-03-25T20:05:43.227Z,13.70
2018-03-25T20:08:12.530Z,15.37
2018-03-25T20:10:41.388Z,15.97
2018-03-25T20:13:10.290Z,18.63
2018-03-25T20:15:39.148Z,20.17
2018-03-25T20:18:08.111Z,17.30
2018-03-25T20:20:36.983Z,19.67
2018-03-25T20:23:05.834Z,17.17
2018-03-25T20:25:34.919Z,18.93
2018-03-25T20:28:03.787Z,15.37
2018-03-25T20:30:32.644Z,17.33
2018-03-25T20:33:02.298Z,16.30
2018-03-25T20:35:31.167Z,15.33
2018-03-25T20:38:00.032Z,13.30
2018-03-25T20:40:31.055Z,12.20
2018-03-25T20:42:59.910Z,14.40
2018-03-25T20:45:28.817Z,12.77
2018-03-25T20:47:57.866Z,15.73
2018-03-25T20:50:26.727Z,15.17
2018-03-25T20:52:55.587Z,16.47
2018-03-25T20:55:24.786Z,15.43
2018-03-25T20:57:53.644Z,14.30
2018-03-25T21:00:23.420Z,15.57
2018-03-25T21:02:52.383Z,14.90
2018-03-25T21:05:21.195Z,14.17
2018-03-25T21:07:50.060Z,15.13
2018-03-25T21:10:18.974Z,15.30
2018-03-25T21:12:47.843Z,16.07
2018-03-25T21:15:16.700Z,15.60
2018-03-25T21:17:46.422Z,13.43
2018-03-25T21:20:15.283Z,15.17
2018-03-25T21:22:44.278Z,15.90
2018-03-25T21:25:13.183Z,17.07
2018-03-25T21:27:42.040Z,15.47
2018-03-25T21:30:10.937Z,17.07
2018-03-25T21:32:39.786Z,15.23
2018-03-25T21:35:09.188Z,16.00
2018-03-25T21:37:38.050Z,15.63
2018-03-25T21:40:06.952Z,14.40
2018-03-25T21:42:36.639Z,15.03
2018-03-25T21:45:05.505Z,15.30
2018-03-25T21:47:34.392Z,16.27
2018-03-25T21:50:03.227Z,18.00
2018-03-25T21:52:32.643Z,13.97
2018-03-25T21:55:01.652Z,16.87
2018-03-25T21:57:30.507Z,16.00
2018-03-25T21:59:59.629Z,14.63
2018-03-25T22:02:28.479Z,15.87
2018-03-25T22:04:57.326Z,14.60
2018-03-25T22:07:26.206Z,15.03
2018-03-25T22:09:55.062Z,16.03
2018-03-25T22:12:25.428Z,15.87
2018-03-25T22:14:54.274Z,13.73
2018-03-25T22:17:23.180Z,15.93
2018-03-25T22:19:52.101Z,15.43
2018-03-25T22:22:20.948Z,16.97
2018-03-25T22:24:49.819Z,16.27
2018-03-25T22:27:19.481Z,14.80
2018-03-25T22:29:48.343Z,17.13
2018-03-25T22:32:17.249Z,15.37
2018-03-25T22:34:46.120Z,16.47
2018-03-25T22:37:14.970Z,18.43
2018-03-25T22:39:43.840Z,14.20
2018-03-25T22:42:12.800Z,16.90
2018-03-25T22:44:43.551Z,20.07
2018-03-25T22:47:12.447Z,14.23
2018-03-25T22:49:41.341Z,16.77
2018-03-25T22:52:10.208Z,17.77
2018-03-25T22:54:39.111Z,17.47
2018-03-25T22:57:07.960Z,21.17
2018-03-25T22:59:38.655Z,17.43
2018-03-25T23:02:07.687Z,17.60
2018-03-25T23:04:36.558Z,17.53
2018-03-25T23:07:05.403Z,15.60
2018-03-25T23:09:34.473Z,17.50
2018-03-25T23:12:03.324Z,16.47
2018-03-25T23:14:32.207Z,15.70
2018-03-25T23:17:01.920Z,18.47
2018-03-25T23:19:30.791Z,15.83
2018-03-25T23:21:59.694Z,16.80
2018-03-25T23:24:28.544Z,16.03
2018-03-25T23:26:57.450Z,15.23
2018-03-25T23:29:26.315Z,16.77
2018-03-25T23:31:55.264Z,15.60
2018-03-25T23:34:24.770Z,15.47
2018-03-25T23:36:53.623Z,15.97
2018-03-25T23:39:22.491Z,15.60
2018-03-25T23:41:51.403Z,13.70
2018-03-25T23:44:20.258Z,15.30
2018-03-25T23:46:49.307Z,15.27
2018-03-25T23:49:18.195Z,17.23
2018-03-25T23:51:47.062Z,16.97
2018-03-25T23:54:16.194Z,16.03
2018-03-25T23:56:45.055Z,13.53
2018-03-25T23:59:13.927Z,13.60
